Time;durP1;ratioP1;P1;durP2;ratioP2;P2;SDS_P1;SDS_P2;PMS_P1;PMS_P2;Temp;Humidity;BMP_temperature;BMP_pressure;BME280_temperature;BME280_humidity;BME280_pressure;Samples;Min_cycle;Max_cycle;Signal;HPM_P1;HPM_P2
2021/11/02 00:00:32;;;;;;;9.93;5.03;;;;;;;;;;5005554;28;20502;-74
2021/11/02 00:02:58;;;;;;;11.43;4.97;;;;;;;;;;5011938;28;20045;-74
2021/11/02 00:05:24;;;;;;;13.85;5.70;;;;;;;;;;5019214;28;20606;-75
2021/11/02 00:07:50;;;;;;;7.97;4.53;;;;;;;;;;5005258;28;20026;-75
2021/11/02 00:10:16;;;;;;;14.02;5.00;;;;;;;;;;5018085;28;20491;-74
2021/11/02 00:12:42;;;;;;;11.38;5.82;;;;;;;;;;5011640;28;20422;-74
2021/11/02 00:15:09;;;;;;;12.43;5.15;;;;;;;;;;5004813;28;20030;-74
2021/11/02 00:17:37;;;;;;;9.32;5.30;;;;;;;;;;5011766;28;20054;-74
2021/11/02 00:20:06;;;;;;;13.85;5.55;;;;;;;;;;5007319;28;20486;-74
2021/11/02 00:22:34;;;;;;;10.98;5.50;;;;;;;;;;5005220;28;20033;-74
2021/11/02 00:25:07;;;;;;;9.43;4.90;;;;;;;;;;5005687;28;20562;-74
2021/11/02 00:27:35;;;;;;;14.38;6.03;;;;;;;;;;5009248;28;20026;-74
2021/11/02 00:30:01;;;;;;;16.65;8.10;;;;;;;;;;5010847;28;20030;-74
2021/11/02 00:32:28;;;;;;;12.05;6.97;;;;;;;;;;5001970;28;20117;-74
2021/11/02 00:34:54;;;;;;;14.85;5.80;;;;;;;;;;5009076;28;20106;-74
2021/11/02 00:37:20;;;;;;;16.33;6.40;;;;;;;;;;5006509;28;20105;-74
2021/11/02 00:39:46;;;;;;;10.48;5.05;;;;;;;;;;5000619;28;20064;-74
2021/11/02 00:42:12;;;;;;;13.60;5.70;;;;;;;;;;5003078;28;20061;-74
2021/11/02 00:44:42;;;;;;;10.85;5.68;;;;;;;;;;5009059;28;20036;-74
2021/11/02 00:47:08;;;;;;;;;;;;;;;;;;5004353;28;20489;-74
2021/11/02 00:49:34;;;;;;;13.43;5.50;;;;;;;;;;5007103;28;19965;-74
2021/11/02 00:52:00;;;;;;;14.02;5.47;;;;;;;;;;4997515;28;20452;-74
2021/11/02 00:54:26;;;;;;;15.57;6.47;;;;;;;;;;4999751;28;20061;-74
2021/11/02 00:56:52;;;;;;;12.65;6.90;;;;;;;;;;4999518;28;20038;-74
2021/11/02 00:59:18;;;;;;;14.27;5.97;;;;;;;;;;4999441;28;20030;-74
2021/11/02 01:01:44;;;;;;;11.65;5.93;;;;;;;;;;5007473;28;20030;-74
2021/11/02 01:04:10;;;;;;;12.40;7.38;;;;;;;;;;5011880;28;20032;-74
2021/11/02 01:06:37;;;;;;;14.75;7.03;;;;;;;;;;5008163;28;20108;-74
2021/11/02 01:09:04;;;;;;;16.63;6.30;;;;;;;;;;5007636;28;20033;-74
2021/11/02 01:11:30;;;;;;;15.63;7.15;;;;;;;;;;5011222;28;20088;-74
2021/11/02 01:13:56;;;;;;;15.25;6.47;;;;;;;;;;5004501;28;20026;-74
2021/11/02 01:16:24;;;;;;;12.43;5.28;;;;;;;;;;5005478;28;20022;-74
2021/11/02 01:18:51;;;;;;;13.43;6.13;;;;;;;;;;5010672;28;20022;-74
2021/11/02 01:21:18;;;;;;;16.85;6.32;;;;;;;;;;5008143;28;20411;-74
2021/11/02 01:23:44;;;;;;;11.38;7.20;;;;;;;;;;5004456;28;20036;-74
2021/11/02 01:26:10;;;;;;;15.95;6.30;;;;;;;;;;5010911;28;20473;-74
2021/11/02 01:28:35;;;;;;;12.85;6.13;;;;;;;;;;5002038;28;20141;-74
2021/11/02 01:31:01;;;;;;;12.45;5.63;;;;;;;;;;5009344;28;20026;-74
2021/11/02 01:33:27;;;;;;;20.30;8.25;;;;;;;;;;5009220;28;20034;-74
2021/11/02 01:35:53;;;;;;;15.52;6.78;;;;;;;;;;5010321;28;20037;-75
2021/11/02 01:38:23;;;;;;;14.35;6.45;;;;;;;;;;5002094;28;20034;-74
2021/11/02 01:40:50;;;;;;;14.93;7.25;;;;;;;;;;5002416;28;20487;-74
2021/11/02 01:43:16;;;;;;;16.50;8.27;;;;;;;;;;5008261;28;20060;-73
2021/11/02 01:45:43;;;;;;;17.00;7.22;;;;;;;;;;5002950;28;20361;-74
2021/11/02 01:48:09;;;;;;;12.55;6.57;;;;;;;;;;5010321;28;20022;-74
2021/11/02 01:50:35;;;;;;;14.88;6.97;;;;;;;;;;5008620;28;20481;-74
2021/11/02 01:53:01;;;;;;;16.38;7.47;;;;;;;;;;5013343;28;20503;-74
2021/11/02 01:55:27;;;;;;;13.27;7.35;;;;;;;;;;5010739;28;20027;-74
2021/11/02 01:57:53;;;;;;;17.33;7.75;;;;;;;;;;5011744;28;20022;-74
2021/11/02 02:00:20;;;;;;;15.18;7.43;;;;;;;;;;5005859;28;20026;-74
2021/11/02 02:03:09;;;;;;;14.25;8.13;;;;;;;;;;5011007;28;20033;-74
2021/11/02 02:05:43;;;;;;;17.33;8.00;;;;;;;;;;5022609;28;20111;-74
2021/11/02 02:08:18;;;;;;;17.23;7.78;;;;;;;;;;5014694;28;20018;-75
2021/11/02 02:10:51;;;;;;;14.13;7.90;;;;;;;;;;5023633;28;20021;-74
2021/11/02 02:13:26;;;;;;;14.00;8.32;;;;;;;;;;5017640;28;20026;-74
2021/11/02 02:16:00;;;;;;;13.07;7.25;;;;;;;;;;5004329;28;20025;-74
2021/11/02 02:18:29;;;;;;;18.73;8.43;;;;;;;;;;5004870;28;20029;-74
2021/11/02 02:20:58;;;;;;;19.45;8.30;;;;;;;;;;5004365;28;20475;-74
2021/11/02 02:23:24;;;;;;;15.95;8.38;;;;;;;;;;5006227;28;20339;-74
2021/11/02 02:25:50;;;;;;;14.10;7.88;;;;;;;;;;5019233;28;20479;-74
2021/11/02 02:28:21;;;;;;;14.32;7.45;;;;;;;;;;5009732;28;20022;-74
2021/11/02 02:30:49;;;;;;;12.73;8.05;;;;;;;;;;5011302;28;20030;-74
2021/11/02 02:33:16;;;;;;;19.13;8.57;;;;;;;;;;5013815;28;20077;-75
2021/11/02 02:35:43;;;;;;;18.02;8.48;;;;;;;;;;5001708;28;20085;-74
2021/11/02 02:38:10;;;;;;;20.67;8.75;;;;;;;;;;5004659;28;20391;-74
2021/11/02 02:40:36;;;;;;;16.85;8.32;;;;;;;;;;5001593;28;20400;-74
2021/11/02 02:43:03;;;;;;;25.63;8.65;;;;;;;;;;5017139;28;20509;-74
2021/11/02 02:45:29;;;;;;;17.92;9.25;;;;;;;;;;5008197;28;20018;-74
2021/11/02 02:47:56;;;;;;;22.90;10.35;;;;;;;;;;5000612;28;20023;-74
2021/11/02 02:50:22;;;;;;;15.50;8.73;;;;;;;;;;5007335;28;20014;-74
2021/11/02 02:52:48;;;;;;;13.98;8.15;;;;;;;;;;5007558;28;20073;-74
2021/11/02 02:55:15;;;;;;;20.77;8.25;;;;;;;;;;5010115;28;20410;-74
2021/11/02 02:57:43;;;;;;;18.67;9.25;;;;;;;;;;5007530;28;20491;-74
2021/11/02 03:00:10;;;;;;;18.67;8.95;;;;;;;;;;5009881;28;20098;-74
2021/11/02 03:02:36;;;;;;;19.52;9.82;;;;;;;;;;5012920;28;20040;-74
2021/11/02 03:05:04;;;;;;;19.45;9.38;;;;;;;;;;5003220;28;20027;-74
2021/11/02 03:07:30;;;;;;;21.70;9.48;;;;;;;;;;5007404;28;20026;-74
2021/11/02 03:09:57;;;;;;;16.80;9.10;;;;;;;;;;5012999;28;20033;-74
2021/11/02 03:12:34;;;;;;;19.52;10.35;;;;;;;;;;5002642;28;20026;-74
2021/11/02 03:15:36;;;;;;;16.70;9.77;;;;;;;;;;5003124;28;20030;-74
2021/11/02 03:18:22;;;;;;;16.23;8.90;;;;;;;;;;5011404;28;20048;-74
2021/11/02 03:49:55;;;;;;;21.98;11.45;;;;;;;;;;4948326;28;20046;-74
2021/11/02 04:33:02;;;;;;;17.83;10.35;;;;;;;;;;5009524;28;20040;-74
2021/11/02 04:42:06;;;;;;;19.08;10.73;;;;;;;;;;5010689;28;20077;-74
2021/11/02 04:46:26;;;;;;;16.20;10.07;;;;;;;;;;5008294;28;20041;-73
2021/11/02 05:08:12;;;;;;;15.20;9.95;;;;;;;;;;4998084;28;20141;-74
2021/11/02 05:54:32;;;;;;;26.92;11.95;;;;;;;;;;5010638;28;20034;-74
2021/11/02 05:57:23;;;;;;;25.63;11.82;;;;;;;;;;5002286;28;20075;-74
2021/11/02 05:59:54;;;;;;;22.45;11.57;;;;;;;;;;5006013;28;20042;-74
2021/11/02 06:02:39;;;;;;;28.50;13.07;;;;;;;;;;5004720;28;20026;-74
2021/11/02 06:05:28;;;;;;;33.83;12.57;;;;;;;;;;4997718;28;20022;-74
2021/11/02 06:08:28;;;;;;;31.10;12.05;;;;;;;;;;5003917;28;20029;-74
2021/11/02 06:11:11;;;;;;;28.08;10.82;;;;;;;;;;5005015;28;20550;-74
2021/11/02 06:30:09;;;;;;;30.67;12.48;;;;;;;;;;4995725;28;20035;-74
2021/11/02 06:32:39;;;;;;;28.40;11.70;;;;;;;;;;4997444;28;20447;-74
2021/11/02 06:35:14;;;;;;;33.78;13.45;;;;;;;;;;5002685;28;20037;-73
2021/11/02 06:40:18;;;;;;;27.50;11.48;;;;;;;;;;5009820;28;20037;-74
2021/11/02 06:42:59;;;;;;;29.00;11.00;;;;;;;;;;5009817;28;20349;-74
2021/11/02 06:48:52;;;;;;;28.77;11.80;;;;;;;;;;4985308;28;20041;-74
2021/11/02 06:54:36;;;;;;;27.10;11.82;;;;;;;;;;5006120;28;20333;-74
2021/11/02 06:57:31;;;;;;;34.10;12.48;;;;;;;;;;5009956;28;20132;-74
2021/11/02 07:00:37;;;;;;;28.90;12.20;;;;;;;;;;5010991;28;20119;-74
2021/11/02 07:19:46;;;;;;;37.35;13.27;;;;;;;;;;5003062;28;20088;-72
2021/11/02 08:48:06;;;;;;;49.65;19.45;;;;;;;;;;5010196;28;20021;-74
2021/11/02 08:50:37;;;;;;;47.97;19.10;;;;;;;;;;5009519;28;20376;-73
2021/11/02 08:53:04;;;;;;;43.72;19.25;;;;;;;;;;4996689;28;20029;-73
2021/11/02 08:55:30;;;;;;;41.85;18.98;;;;;;;;;;5007153;28;20081;-74
2021/11/02 08:57:57;;;;;;;47.20;18.08;;;;;;;;;;5007004;28;20399;-73
2021/11/02 09:00:23;;;;;;;46.03;19.45;;;;;;;;;;5007052;28;20042;-74
2021/11/02 09:02:51;;;;;;;50.53;20.50;;;;;;;;;;5000577;28;20110;-75
2021/11/02 09:05:20;;;;;;;40.80;18.70;;;;;;;;;;5007955;28;20025;-75
2021/11/02 09:07:46;;;;;;;39.70;17.90;;;;;;;;;;4999265;28;20030;-75
2021/11/02 09:10:19;;;;;;;51.03;19.95;;;;;;;;;;5006673;28;20057;-75
2021/11/02 09:12:46;;;;;;;47.35;21.73;;;;;;;;;;5004218;28;20100;-74
2021/11/02 09:15:13;;;;;;;42.45;19.90;;;;;;;;;;5004365;28;20038;-75
2021/11/02 09:17:49;;;;;;;45.95;21.35;;;;;;;;;;5001636;28;20044;-74
2021/11/02 09:20:16;;;;;;;44.28;20.40;;;;;;;;;;5007174;28;20034;-75
2021/11/02 09:22:43;;;;;;;49.08;21.67;;;;;;;;;;5005059;28;20658;-72
2021/11/02 09:25:09;;;;;;;42.90;20.30;;;;;;;;;;5001153;28;20022;-75
2021/11/02 09:27:36;;;;;;;48.13;20.17;;;;;;;;;;4991491;28;20029;-74
2021/11/02 09:30:03;;;;;;;47.88;21.92;;;;;;;;;;4993326;28;20026;-74
2021/11/02 09:32:30;;;;;;;46.45;22.08;;;;;;;;;;5002600;28;20113;-75
2021/11/02 09:34:56;;;;;;;42.33;21.35;;;;;;;;;;5001273;28;20103;-74
2021/11/02 09:37:31;;;;;;;50.53;22.67;;;;;;;;;;5008329;28;20038;-73
2021/11/02 09:40:01;;;;;;;41.55;20.83;;;;;;;;;;5004852;28;20463;-73
2021/11/02 09:42:27;;;;;;;;;;;;;;;;;;5010310;28;20034;-73
2021/11/02 09:45:10;;;;;;;43.47;21.05;;;;;;;;;;5006711;28;20008;-73
2021/11/02 09:47:54;;;;;;;41.38;20.27;;;;;;;;;;5006805;28;20020;-75
2021/11/02 09:50:32;;;;;;;42.35;21.73;;;;;;;;;;4996544;28;20034;-74
2021/11/02 09:52:58;;;;;;;44.40;20.23;;;;;;;;;;5000988;28;20033;-74
2021/11/02 09:55:35;;;;;;;38.80;19.52;;;;;;;;;;5001367;28;20061;-75
2021/11/02 09:58:07;;;;;;;43.05;19.77;;;;;;;;;;5008673;28;20025;-75
2021/11/02 10:00:41;;;;;;;40.03;19.10;;;;;;;;;;5007409;28;20088;-75
2021/11/02 10:03:11;;;;;;;39.85;21.23;;;;;;;;;;5005212;28;20479;-75
2021/11/02 10:05:52;;;;;;;40.42;20.95;;;;;;;;;;5000842;28;20052;-75
2021/11/02 10:08:23;;;;;;;41.92;20.65;;;;;;;;;;5005554;28;20506;-75
2021/11/02 10:11:01;;;;;;;37.33;19.85;;;;;;;;;;5003859;28;20030;-75
2021/11/02 10:13:35;;;;;;;44.33;20.30;;;;;;;;;;5008750;28;20038;-74
2021/11/02 10:16:16;;;;;;;36.53;18.90;;;;;;;;;;5007508;28;20029;-75
2021/11/02 10:19:02;;;;;;;33.63;19.73;;;;;;;;;;5008424;28;20030;-75
2021/11/02 10:21:30;;;;;;;36.45;18.95;;;;;;;;;;5005037;28;20494;-76
2021/11/02 10:24:11;;;;;;;35.08;18.40;;;;;;;;;;5010583;28;20034;-74
2021/11/02 10:26:40;;;;;;;40.88;20.83;;;;;;;;;;5009438;28;20153;-74
2021/11/02 10:29:19;;;;;;;38.95;19.25;;;;;;;;;;5004336;28;20131;-75
2021/11/02 10:32:01;;;;;;;36.35;19.30;;;;;;;;;;5010753;28;20041;-75
2021/11/02 10:34:30;;;;;;;35.38;18.33;;;;;;;;;;5010173;28;20057;-75
2021/11/02 10:36:56;;;;;;;40.33;20.73;;;;;;;;;;5008385;28;20026;-74
2021/11/02 10:39:30;;;;;;;37.33;20.27;;;;;;;;;;5008464;28;20080;-75
2021/11/02 10:42:15;;;;;;;43.00;20.73;;;;;;;;;;5010435;28;20026;-74
2021/11/02 10:44:42;;;;;;;38.17;21.00;;;;;;;;;;5010445;28;20036;-74
2021/11/02 10:47:21;;;;;;;39.97;19.55;;;;;;;;;;5001940;28;20033;-71
2021/11/02 10:49:54;;;;;;;37.10;19.45;;;;;;;;;;5010788;28;20038;-72
2021/11/02 10:52:25;;;;;;;32.60;18.23;;;;;;;;;;5005310;28;20057;-72
2021/11/02 10:54:52;;;;;;;37.10;18.15;;;;;;;;;;5013951;28;20116;-72
2021/11/02 10:57:47;;;;;;;36.80;17.25;;;;;;;;;;5013211;28;20061;-72
2021/11/02 11:00:13;;;;;;;34.67;18.75;;;;;;;;;;4993341;28;20057;-72
2021/11/02 11:02:43;;;;;;;31.33;17.83;;;;;;;;;;5013652;28;20088;-72
2021/11/02 11:05:09;;;;;;;30.15;17.25;;;;;;;;;;5005413;28;20062;-72
2021/11/02 11:07:38;;;;;;;33.70;18.60;;;;;;;;;;5006074;28;20030;-72
2021/11/02 11:10:05;;;;;;;35.28;18.88;;;;;;;;;;5011461;28;20042;-72
2021/11/02 11:12:36;;;;;;;39.00;19.73;;;;;;;;;;5004955;28;20112;-72
2021/11/02 11:15:04;;;;;;;34.15;17.52;;;;;;;;;;5007106;28;20096;-71
2021/11/02 11:17:31;;;;;;;37.95;20.55;;;;;;;;;;5012550;28;20022;-71
2021/11/02 11:20:11;;;;;;;35.25;19.23;;;;;;;;;;5011125;28;20372;-71
2021/11/02 11:22:39;;;;;;;33.53;18.08;;;;;;;;;;5012507;28;20022;-71
2021/11/02 11:25:08;;;;;;;36.95;19.55;;;;;;;;;;5012679;28;20029;-71
2021/11/02 11:27:36;;;;;;;36.00;18.73;;;;;;;;;;5013763;28;20013;-71
2021/11/02 11:30:05;;;;;;;33.78;18.27;;;;;;;;;;5012654;28;20030;-71
2021/11/02 11:32:34;;;;;;;37.35;17.40;;;;;;;;;;5009881;28;20029;-70
2021/11/02 11:35:02;;;;;;;35.50;18.20;;;;;;;;;;5009461;28;20037;-71
2021/11/02 11:37:29;;;;;;;33.25;18.05;;;;;;;;;;5012043;28;20497;-71
2021/11/02 11:40:05;;;;;;;32.08;16.83;;;;;;;;;;5006900;28;20093;-71
2021/11/02 11:42:31;;;;;;;31.45;17.50;;;;;;;;;;5005004;28;20034;-71
2021/11/02 11:45:02;;;;;;;29.50;17.95;;;;;;;;;;5004425;28;20049;-72
2021/11/02 11:47:27;;;;;;;36.05;18.33;;;;;;;;;;5002058;28;20109;-71
2021/11/02 11:49:54;;;;;;;29.35;17.13;;;;;;;;;;5008351;28;20117;-71
2021/11/02 11:52:24;;;;;;;32.00;17.67;;;;;;;;;;5011322;28;20026;-71
2021/11/02 11:54:52;;;;;;;28.65;15.18;;;;;;;;;;5010382;28;20037;-71
2021/11/02 11:57:31;;;;;;;25.70;14.40;;;;;;;;;;5010062;28;20061;-71
2021/11/02 12:00:19;;;;;;;27.98;15.80;;;;;;;;;;5009633;28;20030;-72
2021/11/02 12:03:00;;;;;;;27.95;14.35;;;;;;;;;;5010538;28;20053;-73
2021/11/02 12:05:27;;;;;;;22.63;13.85;;;;;;;;;;5003912;28;20018;-73
2021/11/02 12:07:57;;;;;;;21.88;12.43;;;;;;;;;;5000062;28;20058;-72
2021/11/02 12:10:25;;;;;;;22.88;14.00;;;;;;;;;;5009090;28;20025;-72
2021/11/02 12:12:55;;;;;;;24.58;13.98;;;;;;;;;;5004595;28;20030;-72
2021/11/02 12:15:21;;;;;;;23.60;14.05;;;;;;;;;;5013307;28;20121;-74
2021/11/02 12:17:50;;;;;;;22.67;13.52;;;;;;;;;;5005791;28;20030;-73
2021/11/02 12:20:16;;;;;;;26.60;14.60;;;;;;;;;;5007923;28;20026;-74
2021/11/02 12:22:49;;;;;;;20.15;13.13;;;;;;;;;;5002988;28;20038;-73
2021/11/02 12:25:29;;;;;;;20.95;12.35;;;;;;;;;;5009146;28;20471;-73
2021/11/02 12:27:56;;;;;;;23.92;12.35;;;;;;;;;;5009429;28;20103;-73
2021/11/02 12:30:23;;;;;;;21.55;12.90;;;;;;;;;;5011234;28;20030;-74
2021/11/02 12:32:51;;;;;;;21.60;12.35;;;;;;;;;;5002820;28;20076;-73
2021/11/02 12:35:42;;;;;;;24.15;12.27;;;;;;;;;;5010207;28;20030;-74
2021/11/02 12:38:08;;;;;;;21.83;12.52;;;;;;;;;;5003225;28;20030;-73
2021/11/02 12:40:35;;;;;;;23.33;12.07;;;;;;;;;;5009592;28;20025;-74
2021/11/02 12:43:02;;;;;;;25.42;12.93;;;;;;;;;;5010109;28;20021;-74
2021/11/02 12:45:29;;;;;;;25.58;14.27;;;;;;;;;;5010949;28;20080;-74
2021/11/02 12:48:01;;;;;;;22.50;12.43;;;;;;;;;;5010541;28;20053;-74
2021/11/02 12:50:28;;;;;;;19.33;11.85;;;;;;;;;;5011024;28;20017;-74
2021/11/02 12:52:56;;;;;;;21.80;11.93;;;;;;;;;;5004995;28;20029;-74
2021/11/02 12:55:25;;;;;;;19.27;12.43;;;;;;;;;;5005823;28;20129;-74
2021/11/02 12:57:59;;;;;;;23.95;12.90;;;;;;;;;;5007222;28;20030;-74
2021/11/02 13:00:28;;;;;;;21.10;12.32;;;;;;;;;;5009937;28;20447;-74
2021/11/02 13:02:58;;;;;;;19.00;10.80;;;;;;;;;;5000316;28;20034;-74
2021/11/02 13:05:24;;;;;;;;;;;;;;;;;;5006658;28;20033;-73
2021/11/02 13:08:04;;;;;;;16.38;10.65;;;;;;;;;;5007289;28;19932;-74
2021/11/02 13:10:31;;;;;;;18.90;10.13;;;;;;;;;;5001875;28;20017;-73
2021/11/02 13:13:04;;;;;;;16.27;9.38;;;;;;;;;;5009500;28;20084;-73
2021/11/02 13:15:32;;;;;;;19.05;10.52;;;;;;;;;;5004775;28;20564;-73
2021/11/02 13:17:59;;;;;;;16.88;10.95;;;;;;;;;;5005527;28;20422;-73
2021/11/02 13:20:36;;;;;;;17.55;10.45;;;;;;;;;;5006166;28;20029;-73
2021/11/02 13:23:09;;;;;;;15.70;7.95;;;;;;;;;;5008207;28;20029;-73
2021/11/02 13:25:39;;;;;;;13.13;6.47;;;;;;;;;;5010074;28;20026;-73
2021/11/02 13:28:05;;;;;;;8.32;5.38;;;;;;;;;;5008172;28;20068;-73
2021/11/02 13:30:41;;;;;;;9.85;5.68;;;;;;;;;;4998781;28;20383;-72
2021/11/02 13:33:15;;;;;;;10.35;6.13;;;;;;;;;;5008330;28;20367;-73
2021/11/02 13:36:04;;;;;;;6.78;4.50;;;;;;;;;;5005448;28;20433;-73
2021/11/02 13:38:37;;;;;;;7.60;4.47;;;;;;;;;;5010206;28;20486;-73
2021/11/02 13:41:21;;;;;;;7.38;4.80;;;;;;;;;;5008741;28;20037;-74
2021/11/02 13:43:49;;;;;;;8.18;4.40;;;;;;;;;;5008082;28;20049;-73
2021/11/02 13:46:16;;;;;;;8.65;4.32;;;;;;;;;;5015075;28;20109;-73
2021/11/02 13:48:42;;;;;;;8.32;4.07;;;;;;;;;;5006847;28;20029;-73
2021/11/02 13:51:10;;;;;;;7.47;4.07;;;;;;;;;;5008879;28;20399;-73
2021/11/02 13:53:36;;;;;;;6.78;3.67;;;;;;;;;;5007945;28;20446;-73
2021/11/02 13:56:03;;;;;;;8.70;4.70;;;;;;;;;;5014197;28;20030;-73
2021/11/02 13:58:30;;;;;;;5.75;3.63;;;;;;;;;;5015505;28;20459;-73
2021/11/02 14:00:56;;;;;;;6.60;3.80;;;;;;;;;;5008342;28;20033;-74
2021/11/02 14:03:24;;;;;;;6.43;3.63;;;;;;;;;;5011821;28;20065;-74
2021/11/02 14:05:50;;;;;;;6.55;3.28;;;;;;;;;;5014192;28;20104;-74
2021/11/02 14:08:19;;;;;;;5.65;3.60;;;;;;;;;;5014112;28;20112;-74
2021/11/02 14:10:51;;;;;;;6.15;3.33;;;;;;;;;;5013555;28;20105;-73
2021/11/02 14:13:35;;;;;;;5.50;3.25;;;;;;;;;;5014299;28;20036;-73
2021/11/02 14:16:01;;;;;;;7.00;3.75;;;;;;;;;;5018472;28;20057;-74
2021/11/02 14:18:34;;;;;;;4.95;3.35;;;;;;;;;;5015838;28;20034;-74
2021/11/02 14:21:00;;;;;;;7.00;2.67;;;;;;;;;;5013325;28;20108;-73
2021/11/02 14:23:40;;;;;;;4.25;2.00;;;;;;;;;;5011417;28;20026;-73
2021/11/02 14:26:35;;;;;;;5.93;2.80;;;;;;;;;;5027668;28;20022;-73
2021/11/02 14:29:02;;;;;;;4.03;2.50;;;;;;;;;;5012251;28;20026;-74
2021/11/02 14:31:41;;;;;;;4.93;2.53;;;;;;;;;;5016851;28;20034;-72
2021/11/02 14:34:33;;;;;;;3.55;2.70;;;;;;;;;;5009503;28;20151;-72
2021/11/02 14:37:12;;;;;;;4.00;2.08;;;;;;;;;;4998459;28;20203;-72
2021/11/02 14:39:57;;;;;;;2.63;1.67;;;;;;;;;;5015724;28;20095;-72
2021/11/02 14:42:39;;;;;;;4.38;1.50;;;;;;;;;;5007996;28;20292;-72
2021/11/02 14:45:05;;;;;;;3.15;0.70;;;;;;;;;;5015075;28;20065;-73
2021/11/02 14:47:34;;;;;;;1.77;0.30;;;;;;;;;;5018398;28;20026;-74
2021/11/02 14:50:00;;;;;;;0.70;0.20;;;;;;;;;;5017385;28;20022;-73
2021/11/02 14:52:26;;;;;;;1.00;0.20;;;;;;;;;;5013534;28;20035;-73
2021/11/02 14:54:53;;;;;;;5.75;1.58;;;;;;;;;;5005102;28;20037;-74
2021/11/02 14:57:18;;;;;;;1.75;0.22;;;;;;;;;;5008310;28;20022;-73
2021/11/02 14:59:55;;;;;;;4.63;0.47;;;;;;;;;;5007320;28;20155;-73
2021/11/02 15:02:34;;;;;;;2.58;0.30;;;;;;;;;;5007567;28;20095;-74
2021/11/02 15:05:05;;;;;;;7.50;0.80;;;;;;;;;;5011388;28;20101;-74
2021/11/02 15:07:32;;;;;;;1.17;0.20;;;;;;;;;;5008235;28;20802;-74
2021/11/02 15:09:58;;;;;;;2.72;0.30;;;;;;;;;;5009031;28;20029;-74
2021/11/02 15:12:24;;;;;;;2.53;0.30;;;;;;;;;;5008990;28;20064;-73
2021/11/02 15:14:51;;;;;;;0.60;0.32;;;;;;;;;;5009610;28;20390;-73
2021/11/02 15:17:19;;;;;;;1.50;0.38;;;;;;;;;;5016958;28;20063;-73
2021/11/02 15:19:44;;;;;;;2.67;0.20;;;;;;;;;;5002996;28;20061;-74
2021/11/02 15:22:12;;;;;;;0.70;0.20;;;;;;;;;;5004870;28;20022;-74
2021/11/02 15:24:39;;;;;;;1.13;0.30;;;;;;;;;;5003963;28;20021;-73
2021/11/02 15:27:11;;;;;;;3.90;0.40;;;;;;;;;;5006587;28;20550;-73
2021/11/02 15:29:38;;;;;;;1.23;0.40;;;;;;;;;;5010458;28;20022;-73
2021/11/02 15:32:04;;;;;;;0.77;0.20;;;;;;;;;;5010735;28;20070;-74
2021/11/02 15:34:34;;;;;;;1.92;0.30;;;;;;;;;;5010420;28;20021;-74
2021/11/02 15:37:11;;;;;;;0.20;0.10;;;;;;;;;;5007190;28;20041;-74
2021/11/02 15:39:38;;;;;;;1.95;0.20;;;;;;;;;;5008316;28;20031;-74
2021/11/02 15:42:04;;;;;;;1.20;0.20;;;;;;;;;;5008370;28;20577;-73
2021/11/02 15:44:31;;;;;;;0.60;0.20;;;;;;;;;;5010924;28;20072;-73
2021/11/02 15:46:57;;;;;;;0.40;0.13;;;;;;;;;;5010887;28;20026;-74
2021/11/02 15:49:24;;;;;;;0.68;0.10;;;;;;;;;;5009803;28;20024;-74
2021/11/02 15:51:57;;;;;;;1.98;0.10;;;;;;;;;;5009455;28;20478;-74
2021/11/02 15:54:27;;;;;;;0.45;0.10;;;;;;;;;;5010375;28;20022;-74
2021/11/02 15:56:55;;;;;;;0.47;0.15;;;;;;;;;;5010902;28;20458;-74
2021/11/02 15:59:24;;;;;;;0.40;0.10;;;;;;;;;;5012447;28;20446;-74
2021/11/02 16:01:53;;;;;;;1.17;0.15;;;;;;;;;;5009721;28;20029;-74
2021/11/02 16:04:25;;;;;;;0.20;0.10;;;;;;;;;;5008993;28;20050;-74
2021/11/02 16:06:53;;;;;;;0.10;0.10;;;;;;;;;;5007596;28;20048;-73
2021/11/02 16:09:19;;;;;;;0.17;0.10;;;;;;;;;;5009853;28;20026;-74
2021/11/02 16:11:46;;;;;;;5.03;0.60;;;;;;;;;;5009701;28;20076;-73
2021/11/02 16:14:12;;;;;;;0.95;0.10;;;;;;;;;;5011227;28;20049;-74
2021/11/02 16:16:38;;;;;;;0.52;0.10;;;;;;;;;;5010975;28;20033;-74
2021/11/02 16:19:04;;;;;;;1.75;0.57;;;;;;;;;;5010037;28;20114;-74
2021/11/02 16:21:32;;;;;;;0.50;0.30;;;;;;;;;;5010361;28;20030;-75
2021/11/02 16:24:06;;;;;;;0.20;0.10;;;;;;;;;;5007678;28;20050;-75
2021/11/02 16:26:32;;;;;;;0.63;0.30;;;;;;;;;;5009380;28;20021;-75
2021/11/02 16:29:11;;;;;;;1.90;0.20;;;;;;;;;;5005097;28;20049;-74
2021/11/02 16:31:37;;;;;;;1.35;0.30;;;;;;;;;;4999912;28;20026;-74
2021/11/02 16:34:20;;;;;;;2.85;0.45;;;;;;;;;;5011002;28;20030;-75
2021/11/02 16:36:46;;;;;;;3.58;0.90;;;;;;;;;;5003761;28;20052;-74
2021/11/02 16:39:16;;;;;;;0.43;0.20;;;;;;;;;;5003735;28;20076;-74
2021/11/02 16:42:08;;;;;;;2.15;0.30;;;;;;;;;;5009129;28;20483;-74
2021/11/02 16:44:35;;;;;;;0.68;0.30;;;;;;;;;;5008983;28;20034;-75
2021/11/02 16:47:06;;;;;;;2.17;0.38;;;;;;;;;;5005701;28;20080;-75
2021/11/02 16:49:33;;;;;;;4.22;0.50;;;;;;;;;;5006342;28;20038;-75
2021/11/02 16:52:06;;;;;;;0.77;0.30;;;;;;;;;;5012027;28;20030;-75
2021/11/02 16:54:43;;;;;;;1.17;0.30;;;;;;;;;;5004201;28;20552;-75
2021/11/02 16:57:12;;;;;;;1.13;0.68;;;;;;;;;;5008695;28;20273;-75
2021/11/02 16:59:38;;;;;;;3.42;0.73;;;;;;;;;;4997621;28;20033;-74
2021/11/02 17:02:14;;;;;;;0.98;0.40;;;;;;;;;;5010224;28;20038;-75
2021/11/02 17:04:41;;;;;;;1.70;0.80;;;;;;;;;;5007175;28;20037;-75
2021/11/02 17:07:11;;;;;;;0.60;0.50;;;;;;;;;;5010700;28;20030;-74
2021/11/02 17:09:39;;;;;;;2.80;0.20;;;;;;;;;;5008607;28;20033;-74
2021/11/02 17:12:10;;;;;;;0.60;0.28;;;;;;;;;;5005781;28;20353;-74
2021/11/02 17:14:42;;;;;;;0.95;0.40;;;;;;;;;;5012826;28;20081;-74
2021/11/02 17:17:10;;;;;;;2.40;1.30;;;;;;;;;;5014623;28;20496;-74
2021/11/02 17:19:43;;;;;;;1.90;0.60;;;;;;;;;;5013608;28;20029;-75
2021/11/02 17:22:09;;;;;;;4.00;0.60;;;;;;;;;;5010916;28;20483;-74
2021/11/02 17:24:35;;;;;;;1.30;0.43;;;;;;;;;;5005410;28;20025;-74
2021/11/02 17:27:01;;;;;;;1.92;0.32;;;;;;;;;;5013931;28;20437;-74
2021/11/02 17:29:28;;;;;;;0.68;0.20;;;;;;;;;;5009450;28;20038;-74
2021/11/02 17:31:55;;;;;;;1.30;0.40;;;;;;;;;;5014343;28;20506;-73
2021/11/02 17:34:22;;;;;;;2.65;0.43;;;;;;;;;;5014802;28;20041;-75
2021/11/02 17:36:59;;;;;;;0.38;0.20;;;;;;;;;;5007481;28;20105;-76
2021/11/02 17:39:27;;;;;;;1.92;0.30;;;;;;;;;;5011478;28;20048;-74
2021/11/02 17:41:54;;;;;;;1.60;0.60;;;;;;;;;;5024360;28;20029;-73
2021/11/02 17:44:20;;;;;;;2.15;0.38;;;;;;;;;;5028946;28;20025;-74
2021/11/02 17:46:46;;;;;;;2.20;0.68;;;;;;;;;;5029978;28;20033;-75
2021/11/02 17:49:12;;;;;;;2.40;0.88;;;;;;;;;;5028699;28;20026;-75
2021/11/02 17:51:39;;;;;;;2.60;0.50;;;;;;;;;;5031919;28;20080;-75
2021/11/02 17:54:05;;;;;;;1.48;0.40;;;;;;;;;;5030870;28;20025;-74
2021/11/02 17:56:31;;;;;;;3.97;1.42;;;;;;;;;;5024172;28;20066;-74
2021/11/02 17:58:58;;;;;;;1.65;0.60;;;;;;;;;;5029311;28;20100;-74
2021/11/02 18:01:25;;;;;;;2.08;0.98;;;;;;;;;;5030052;28;20130;-74
2021/11/02 18:03:51;;;;;;;1.65;0.75;;;;;;;;;;5022117;28;20026;-75
2021/11/02 18:06:17;;;;;;;2.83;0.70;;;;;;;;;;5029804;28;20036;-74
2021/11/02 18:08:44;;;;;;;0.85;0.20;;;;;;;;;;5021821;28;20037;-75
2021/11/02 18:11:11;;;;;;;2.10;0.50;;;;;;;;;;5030965;28;20112;-74
2021/11/02 18:13:37;;;;;;;0.47;0.22;;;;;;;;;;5029868;28;20022;-74
2021/11/02 18:16:06;;;;;;;2.47;0.40;;;;;;;;;;5020972;28;20046;-76
2021/11/02 18:18:37;;;;;;;4.03;0.50;;;;;;;;;;5028972;28;20049;-76
2021/11/02 18:21:05;;;;;;;1.05;0.30;;;;;;;;;;5028334;28;20387;-76
2021/11/02 18:23:31;;;;;;;1.85;0.70;;;;;;;;;;5014193;28;20034;-75
2021/11/02 18:25:57;;;;;;;2.95;0.50;;;;;;;;;;5007276;28;20040;-76
2021/11/02 18:28:23;;;;;;;5.00;1.48;;;;;;;;;;5006548;28;20077;-75
2021/11/02 18:30:49;;;;;;;2.05;1.00;;;;;;;;;;5010346;28;20101;-75
2021/11/02 18:33:15;;;;;;;1.30;0.40;;;;;;;;;;5009618;28;20369;-75
2021/11/02 18:35:41;;;;;;;1.70;0.77;;;;;;;;;;5005621;28;20526;-76
2021/11/02 18:38:08;;;;;;;2.75;0.90;;;;;;;;;;5000174;28;20078;-76
2021/11/02 18:40:36;;;;;;;1.02;0.60;;;;;;;;;;5012248;28;20034;-76
2021/11/02 18:43:03;;;;;;;4.00;0.52;;;;;;;;;;5016194;28;20032;-76
2021/11/02 18:45:29;;;;;;;1.25;0.50;;;;;;;;;;5005393;28;20031;-77
2021/11/02 18:48:00;;;;;;;1.33;0.50;;;;;;;;;;5007960;28;20034;-78
2021/11/02 18:50:31;;;;;;;1.30;0.30;;;;;;;;;;5007934;28;20029;-78
2021/11/02 18:52:57;;;;;;;0.80;0.45;;;;;;;;;;5009744;28;20113;-74
2021/11/02 18:55:24;;;;;;;3.95;0.40;;;;;;;;;;5007600;28;20101;-76
2021/11/02 18:57:50;;;;;;;0.60;0.40;;;;;;;;;;5018811;28;20026;-74
2021/11/02 19:00:17;;;;;;;0.45;0.20;;;;;;;;;;5014217;28;20557;-75
2021/11/02 19:02:43;;;;;;;2.03;0.50;;;;;;;;;;5007983;28;20053;-73
2021/11/02 19:05:10;;;;;;;1.10;0.40;;;;;;;;;;5003887;28;20025;-73
2021/11/02 19:07:36;;;;;;;1.30;0.40;;;;;;;;;;5013242;28;20073;-73
2021/11/02 19:10:04;;;;;;;3.97;0.93;;;;;;;;;;5014344;28;20029;-73
2021/11/02 19:12:31;;;;;;;3.47;0.85;;;;;;;;;;5009497;28;20066;-73
2021/11/02 19:14:58;;;;;;;2.33;0.85;;;;;;;;;;5015318;28;20084;-73
2021/11/02 19:17:24;;;;;;;4.45;2.10;;;;;;;;;;5015338;28;20037;-73